createdAt,value
2018-04-26T00:01:14.970Z,2.10
2018-04-26T00:03:44.274Z,1.70
2018-04-26T00:06:13.597Z,1.60
2018-04-26T00:08:42.917Z,2.07
2018-04-26T00:11:13.013Z,1.90
2018-04-26T00:13:42.311Z,1.50
2018-04-26T00:16:11.625Z,1.90
2018-04-26T00:18:40.918Z,1.50
2018-04-26T00:21:10.238Z,1.90
2018-04-26T00:23:39.538Z,1.40
2018-04-26T00:26:09.618Z,1.50
2018-04-26T00:28:38.988Z,1.67
2018-04-26T00:31:08.235Z,1.77
2018-04-26T00:33:37.535Z,1.53
2018-04-26T00:36:06.833Z,2.03
2018-04-26T00:38:36.175Z,2.00
2018-04-26T00:41:05.459Z,1.57
2018-04-26T00:43:34.808Z,1.20
2018-04-26T00:46:04.107Z,1.70
2018-04-26T00:48:33.432Z,1.80
2018-04-26T00:51:02.768Z,1.37
2018-04-26T00:53:32.062Z,2.07
2018-04-26T00:56:01.361Z,1.60
2018-04-26T00:58:30.682Z,2.03
2018-04-26T01:00:59.983Z,1.80
2018-04-26T01:03:29.290Z,1.60
2018-04-26T01:05:58.636Z,1.67
2018-04-26T01:08:27.918Z,1.80
2018-04-26T01:10:57.273Z,1.50
2018-04-26T01:13:26.596Z,1.67
2018-04-26T01:15:55.882Z,1.70
2018-04-26T01:18:25.167Z,1.60
2018-04-26T01:20:54.513Z,1.63
2018-04-26T01:23:23.817Z,1.60
2018-04-26T01:25:53.911Z,1.67
2018-04-26T01:28:23.264Z,1.70
2018-04-26T01:30:52.562Z,1.40
2018-04-26T01:33:21.851Z,1.90
2018-04-26T01:35:51.934Z,1.80
2018-04-26T01:38:21.249Z,1.80
2018-04-26T01:40:50.531Z,1.93
2018-04-26T01:43:20.734Z,1.60
2018-04-26T01:45:50.046Z,2.07
2018-04-26T01:48:19.322Z,1.50
2018-04-26T01:50:48.610Z,1.70
2018-04-26T01:53:18.698Z,1.70
2018-04-26T01:55:47.983Z,1.77
2018-04-26T01:58:17.301Z,1.70
2018-04-26T02:00:46.609Z,1.70
2018-04-26T02:03:16.691Z,1.80
2018-04-26T02:05:46.008Z,1.77
2018-04-26T02:08:15.306Z,1.70
2018-04-26T02:10:44.612Z,1.90
2018-04-26T02:13:13.920Z,2.10
2018-04-26T02:15:43.208Z,2.03
2018-04-26T02:18:12.499Z,1.67
2018-04-26T02:20:41.805Z,2.23
2018-04-26T02:23:11.101Z,1.93
2018-04-26T02:25:40.403Z,2.73
2018-04-26T02:28:09.709Z,2.37
2018-04-26T02:30:39.030Z,2.20
2018-04-26T02:33:08.326Z,2.20
2018-04-26T02:35:37.641Z,2.30
2018-04-26T02:38:06.946Z,2.20
2018-04-26T02:40:36.252Z,3.07
2018-04-26T02:43:05.559Z,1.90
2018-04-26T02:45:34.863Z,3.00
2018-04-26T02:48:04.171Z,2.43
2018-04-26T02:50:33.463Z,2.33
2018-04-26T02:53:02.780Z,2.07
2018-04-26T02:55:32.093Z,2.40
2018-04-26T02:58:02.176Z,2.27
2018-04-26T03:00:31.490Z,2.33
2018-04-26T03:03:00.783Z,2.50
2018-04-26T03:05:30.867Z,2.77
2018-04-26T03:08:00.188Z,2.60
2018-04-26T03:10:29.477Z,2.60
2018-04-26T03:12:58.822Z,2.40
2018-04-26T03:15:28.112Z,2.33
2018-04-26T03:17:57.407Z,2.67
2018-04-26T03:20:26.745Z,2.53
2018-04-26T03:22:56.029Z,2.90
2018-04-26T03:25:25.363Z,2.83
2018-04-26T03:27:55.450Z,3.10
2018-04-26T03:30:24.754Z,3.37
2018-04-26T03:32:54.832Z,3.77
2018-04-26T03:35:24.118Z,3.90
2018-04-26T03:37:53.410Z,3.90
2018-04-26T03:40:23.517Z,3.13
2018-04-26T03:42:52.794Z,3.20
2018-04-26T03:45:22.060Z,3.33
2018-04-26T03:47:51.416Z,3.80
2018-04-26T03:50:20.727Z,3.67
2018-04-26T03:52:50.032Z,3.83
2018-04-26T03:55:20.095Z,4.20
2018-04-26T03:57:49.409Z,3.33
2018-04-26T04:00:36.555Z,4.20
2018-04-26T04:03:23.649Z,3.70
2018-04-26T04:06:21.729Z,3.53
2018-04-26T04:08:51.061Z,4.00
2018-04-26T04:11:20.345Z,4.23
2018-04-26T04:13:49.766Z,4.07
2018-04-26T04:16:19.746Z,3.90
2018-04-26T04:18:49.043Z,4.20
2018-04-26T04:21:18.349Z,3.70
2018-04-26T04:23:47.660Z,4.77
2018-04-26T04:26:16.969Z,3.93
2018-04-26T04:28:46.275Z,4.20
2018-04-26T04:31:15.568Z,5.03
2018-04-26T04:33:44.885Z,4.20
2018-04-26T04:36:14.177Z,3.90
2018-04-26T04:38:43.479Z,4.50
2018-04-26T04:41:12.785Z,4.47
2018-04-26T04:43:42.109Z,4.13
2018-04-26T04:46:11.402Z,4.37
2018-04-26T04:48:40.746Z,4.20
2018-04-26T04:51:10.040Z,4.23
2018-04-26T04:53:40.125Z,4.27
2018-04-26T04:56:09.427Z,3.93
2018-04-26T04:58:38.747Z,4.60
2018-04-26T05:01:08.068Z,3.67
2018-04-26T05:03:38.140Z,3.60
2018-04-26T05:06:07.451Z,3.60
2018-04-26T05:08:36.770Z,3.67
2018-04-26T05:11:06.083Z,3.77
2018-04-26T05:13:35.398Z,3.77
2018-04-26T05:16:05.488Z,4.10
2018-04-26T05:18:34.799Z,4.00
2018-04-26T05:21:04.894Z,3.70
2018-04-26T05:23:34.190Z,3.80
2018-04-26T05:26:03.539Z,5.40
2018-04-26T05:28:33.598Z,4.63
2018-04-26T05:31:02.926Z,4.63
2018-04-26T05:33:33.061Z,4.07
2018-04-26T05:36:02.380Z,4.73
2018-04-26T05:38:32.454Z,4.20
2018-04-26T05:41:01.752Z,4.50
2018-04-26T05:43:31.068Z,4.47
2018-04-26T05:46:00.372Z,5.00
2018-04-26T05:48:29.689Z,2.70
2018-04-26T05:50:59.005Z,1.87
2018-04-26T05:53:28.306Z,2.27
2018-04-26T05:55:57.647Z,2.07
2018-04-26T05:58:27.696Z,2.37
2018-04-26T06:00:56.999Z,2.13
2018-04-26T06:03:26.388Z,2.43
2018-04-26T06:05:55.643Z,2.60
2018-04-26T06:08:25.728Z,3.30
2018-04-26T06:10:55.037Z,4.53
2018-04-26T06:13:24.346Z,4.50
2018-04-26T06:15:53.689Z,4.63
2018-04-26T06:18:23.762Z,3.73
2018-04-26T06:20:53.080Z,3.50
2018-04-26T06:23:22.461Z,4.27
2018-04-26T06:25:51.762Z,3.00
2018-04-26T06:28:21.076Z,2.70
2018-04-26T06:30:50.376Z,2.60
2018-04-26T06:33:19.697Z,2.30
2018-04-26T06:35:49.788Z,2.20
2018-04-26T06:38:19.104Z,2.50
2018-04-26T06:40:48.427Z,2.30
2018-04-26T06:43:17.702Z,2.20
2018-04-26T06:45:47.056Z,2.17
2018-04-26T06:48:17.107Z,2.57
2018-04-26T06:50:47.861Z,2.50
2018-04-26T06:53:17.145Z,2.40
2018-04-26T06:55:46.464Z,2.90
2018-04-26T06:58:15.802Z,2.97
2018-04-26T07:00:45.119Z,2.23
2018-04-26T07:03:15.216Z,2.50
2018-04-26T07:05:44.576Z,2.50
2018-04-26T07:08:13.878Z,3.30
2018-04-26T07:10:43.200Z,3.07
2018-04-26T07:13:12.518Z,3.20
2018-04-26T07:15:41.829Z,3.57
2018-04-26T07:18:11.143Z,3.97
2018-04-26T07:20:41.233Z,4.90
2018-04-26T07:23:10.522Z,4.47
2018-04-26T07:25:39.898Z,5.13
2018-04-26T07:28:09.187Z,4.13
2018-04-26T07:30:38.490Z,5.03
2018-04-26T07:33:08.618Z,5.00
2018-04-26T07:35:37.933Z,5.37
2018-04-26T07:38:07.297Z,5.17
2018-04-26T07:40:37.358Z,5.73
2018-04-26T07:43:06.663Z,5.70
2018-04-26T07:45:35.982Z,4.90
2018-04-26T07:48:05.324Z,5.20
2018-04-26T07:50:34.631Z,5.70
2018-04-26T07:53:04.825Z,6.27
2018-04-26T07:55:34.269Z,6.53
2018-04-26T07:58:04.327Z,7.20
2018-04-26T08:00:33.644Z,6.60
2018-04-26T08:03:03.051Z,7.53
2018-04-26T08:05:32.367Z,7.37
2018-04-26T08:08:01.719Z,6.83
2018-04-26T08:10:31.048Z,8.17
2018-04-26T08:13:00.555Z,7.97
2018-04-26T08:15:29.868Z,7.90
2018-04-26T08:17:59.216Z,8.57
2018-04-26T08:20:28.556Z,8.53
2018-04-26T08:22:57.875Z,9.30
2018-04-26T08:25:27.211Z,8.83
2018-04-26T08:27:57.292Z,8.93
2018-04-26T08:30:26.659Z,8.93
2018-04-26T08:32:55.955Z,9.63
2018-04-26T08:35:25.277Z,9.63
2018-04-26T08:37:54.588Z,8.57
2018-04-26T08:40:23.965Z,9.37
2018-04-26T08:42:53.271Z,7.63
2018-04-26T08:45:22.591Z,7.70
2018-04-26T08:47:51.936Z,7.53
2018-04-26T08:50:21.271Z,8.07
2018-04-26T08:52:50.617Z,8.60
2018-04-26T08:55:19.944Z,9.23
2018-04-26T08:57:49.260Z,8.37
2018-04-26T09:00:19.353Z,9.27
2018-04-26T09:02:48.694Z,7.53
2018-04-26T09:05:18.781Z,7.10
2018-04-26T09:07:48.121Z,6.27
2018-04-26T09:10:18.187Z,5.60
2018-04-26T09:12:47.626Z,6.00
2018-04-26T09:15:16.947Z,5.97
2018-04-26T09:17:46.253Z,5.77
2018-04-26T09:20:15.574Z,5.30
2018-04-26T09:22:44.949Z,5.60
2018-04-26T09:25:15.041Z,5.30
2018-04-26T09:27:45.107Z,5.17
2018-04-26T09:30:14.481Z,5.23
2018-04-26T09:32:43.787Z,5.67
2018-04-26T09:35:14.013Z,6.30
2018-04-26T09:37:43.318Z,6.93
2018-04-26T09:40:13.434Z,6.90
2018-04-26T09:42:42.742Z,7.03
2018-04-26T09:45:12.839Z,8.07
2018-04-26T09:47:42.165Z,7.27
2018-04-26T09:50:12.272Z,8.10
2018-04-26T09:52:41.581Z,8.53
2018-04-26T09:55:11.026Z,7.30
2018-04-26T09:57:40.363Z,7.77
2018-04-26T10:00:09.671Z,7.00
2018-04-26T10:05:57.110Z,6.00
2018-04-26T10:08:26.434Z,5.63
2018-04-26T10:10:55.742Z,5.63
2018-04-26T10:13:25.839Z,5.10
2018-04-26T10:15:55.165Z,5.00
2018-04-26T10:18:24.499Z,5.13
2018-04-26T10:20:53.809Z,4.87
2018-04-26T10:23:23.111Z,4.73
2018-04-26T10:25:52.443Z,5.07
2018-04-26T10:28:21.751Z,4.40
2018-04-26T10:30:51.101Z,4.67
2018-04-26T10:33:21.201Z,4.67
2018-04-26T10:35:50.503Z,4.40
2018-04-26T10:38:20.618Z,4.87
2018-04-26T10:40:49.933Z,4.50
2018-04-26T10:43:20.019Z,4.50
2018-04-26T10:45:49.348Z,3.77
2018-04-26T10:48:19.418Z,3.70
2018-04-26T10:50:48.748Z,3.67
2018-04-26T10:53:18.291Z,4.13
2018-04-26T10:55:48.359Z,3.70
2018-04-26T10:58:17.672Z,3.93
2018-04-26T11:00:46.994Z,4.00
2018-04-26T11:03:16.341Z,3.67
2018-04-26T11:05:47.148Z,3.90
2018-04-26T11:08:16.500Z,3.67
2018-04-26T11:10:45.816Z,3.63
2018-04-26T11:13:15.127Z,3.33
2018-04-26T11:15:44.544Z,3.70
2018-04-26T11:18:14.548Z,4.00
2018-04-26T11:20:43.879Z,3.90
2018-04-26T11:23:13.200Z,3.30
2018-04-26T11:25:43.271Z,3.20
2018-04-26T11:28:12.606Z,3.47
2018-04-26T11:30:42.701Z,3.50
2018-04-26T11:33:12.030Z,3.50
2018-04-26T11:35:42.111Z,3.20
2018-04-26T11:38:11.423Z,3.50
2018-04-26T11:40:40.773Z,3.77
2018-04-26T11:43:10.847Z,3.30
2018-04-26T11:45:40.223Z,3.10
2018-04-26T11:48:09.532Z,2.87
2018-04-26T11:50:38.869Z,2.80
2018-04-26T11:53:08.200Z,3.40
2018-04-26T11:55:38.287Z,3.50
2018-04-26T11:58:07.618Z,3.00
2018-04-26T12:00:37.707Z,3.90
2018-04-26T12:03:07.012Z,3.50
2018-04-26T12:05:36.321Z,3.17
2018-04-26T12:08:05.643Z,3.03
2018-04-26T12:10:35.739Z,2.70
2018-04-26T12:13:05.143Z,3.00
2018-04-26T12:15:34.743Z,3.30
2018-04-26T12:18:04.074Z,3.17
2018-04-26T12:20:41.443Z,3.60
2018-04-26T12:23:10.742Z,3.10
2018-04-26T12:25:40.075Z,3.10
2018-04-26T12:28:09.386Z,2.83
2018-04-26T12:30:39.486Z,2.70
2018-04-26T12:33:08.791Z,3.23
2018-04-26T12:35:38.097Z,2.90
2018-04-26T12:38:08.222Z,3.57
2018-04-26T12:40:38.292Z,3.53
2018-04-26T12:43:07.598Z,3.30
2018-04-26T12:45:36.947Z,3.80
2018-04-26T12:48:07.018Z,4.10
2018-04-26T12:50:36.354Z,3.70
2018-04-26T12:53:05.654Z,3.30
2018-04-26T12:55:34.967Z,3.50
2018-04-26T12:58:04.328Z,3.60
2018-04-26T13:00:34.368Z,3.83
2018-04-26T13:03:03.683Z,3.70
2018-04-26T13:05:33.007Z,3.70
2018-04-26T13:08:03.170Z,3.70
2018-04-26T13:10:32.645Z,3.90
2018-04-26T13:13:02.744Z,3.73
2018-04-26T13:15:32.068Z,4.37
2018-04-26T13:18:02.167Z,3.80
2018-04-26T13:20:31.498Z,4.00
2018-04-26T13:23:00.806Z,4.33
2018-04-26T13:25:30.110Z,4.33
2018-04-26T13:27:59.438Z,3.87
2018-04-26T13:30:28.750Z,4.57
2018-04-26T13:32:58.040Z,3.53
2018-04-26T13:35:27.376Z,3.37
2018-04-26T13:37:56.699Z,3.37
2018-04-26T13:40:26.799Z,3.50
2018-04-26T13:42:56.117Z,3.50
2018-04-26T13:45:26.203Z,3.33
2018-04-26T13:47:55.507Z,2.43
2018-04-26T13:50:24.827Z,2.73
2018-04-26T13:52:54.143Z,2.70
2018-04-26T13:55:24.241Z,2.07
2018-04-26T13:57:53.567Z,1.97
2018-04-26T14:00:23.664Z,1.87
2018-04-26T14:02:52.959Z,1.70
2018-04-26T14:05:22.283Z,1.90
2018-04-26T14:07:51.597Z,2.10
2018-04-26T14:10:21.702Z,2.50
2018-04-26T14:12:51.059Z,2.20
2018-04-26T14:15:20.359Z,2.33
2018-04-26T14:17:49.678Z,2.50
2018-04-26T14:20:19.015Z,2.70
2018-04-26T14:22:48.345Z,2.87
2018-04-26T14:25:17.683Z,2.50
2018-04-26T14:27:47.008Z,2.60
2018-04-26T14:30:16.336Z,2.70
2018-04-26T14:32:46.434Z,2.57
2018-04-26T14:35:15.758Z,3.17
2018-04-26T14:37:45.156Z,3.00
2018-04-26T14:40:14.495Z,3.00
2018-04-26T14:42:43.798Z,3.47
2018-04-26T14:45:13.119Z,2.87
2018-04-26T14:47:42.431Z,3.70
2018-04-26T14:50:11.763Z,3.17
2018-04-26T14:52:41.075Z,3.10
2018-04-26T14:55:11.177Z,3.40
2018-04-26T14:57:40.481Z,3.40
2018-04-26T15:00:09.804Z,3.03
2018-04-26T15:02:39.890Z,3.30
2018-04-26T15:05:09.191Z,3.70
2018-04-26T15:07:38.514Z,4.10
2018-04-26T15:10:07.822Z,3.37
2018-04-26T15:12:37.139Z,3.10
2018-04-26T15:15:07.237Z,3.70
2018-04-26T15:17:36.553Z,3.50
2018-04-26T15:20:05.881Z,3.20
2018-04-26T15:22:35.206Z,3.70
2018-04-26T15:25:04.508Z,2.80
2018-04-26T15:27:33.842Z,3.10
2018-04-26T15:30:03.177Z,2.47
2018-04-26T15:32:33.290Z,2.23
2018-04-26T15:35:03.405Z,2.80
2018-04-26T15:37:32.706Z,2.80
2018-04-26T15:40:02.023Z,3.00
2018-04-26T15:42:32.111Z,2.73
2018-04-26T15:45:02.433Z,2.40
2018-04-26T15:47:31.772Z,2.87
2018-04-26T15:50:01.933Z,2.20
2018-04-26T15:52:54.510Z,2.47
2018-04-26T15:55:41.541Z,2.10
2018-04-26T16:02:01.101Z,2.10
2018-04-26T16:04:48.194Z,2.27
2018-04-26T16:07:55.617Z,2.33
2018-04-26T16:10:48.395Z,2.47
2018-04-26T16:16:49.934Z,1.83
2018-04-26T16:19:43.380Z,1.70
2018-04-26T16:26:05.547Z,1.80
2018-04-26T16:32:18.256Z,1.77
2018-04-26T16:38:17.694Z,1.80
2018-04-26T16:40:47.106Z,1.53
2018-04-26T16:43:16.339Z,1.80
2018-04-26T16:45:45.699Z,1.50
2018-04-26T16:48:15.187Z,1.70
2018-04-26T16:50:45.527Z,1.77
2018-04-26T16:53:15.369Z,2.13
2018-04-26T16:55:44.776Z,2.03
2018-04-26T16:58:14.862Z,1.80
2018-04-26T17:00:44.263Z,1.83
2018-04-26T17:03:13.609Z,2.33
2018-04-26T17:05:43.693Z,2.00
2018-04-26T17:08:13.012Z,1.97
2018-04-26T17:10:42.377Z,1.87
2018-04-26T17:13:11.696Z,1.90
2018-04-26T17:15:41.344Z,1.90
2018-04-26T17:18:11.718Z,1.73
2018-04-26T17:20:41.023Z,2.23
2018-04-26T17:23:10.333Z,2.30
2018-04-26T17:25:40.433Z,2.17
2018-04-26T17:28:09.775Z,2.07
2018-04-26T17:30:39.097Z,2.47
2018-04-26T17:33:09.206Z,2.60
2018-04-26T17:35:38.569Z,2.47
2018-04-26T17:38:07.874Z,2.30
2018-04-26T17:40:37.181Z,2.73
2018-04-26T17:43:06.530Z,3.13
2018-04-26T17:45:36.645Z,3.63
2018-04-26T17:48:06.073Z,3.90
2018-04-26T17:50:35.478Z,4.47
2018-04-26T17:53:05.581Z,4.47
2018-04-26T17:55:34.905Z,4.47
2018-04-26T17:58:04.250Z,3.97
2018-04-26T18:00:33.575Z,4.00
2018-04-26T18:03:02.951Z,5.20
2018-04-26T18:05:32.318Z,3.67
2018-04-26T18:08:02.387Z,4.40
2018-04-26T18:10:31.702Z,4.50
2018-04-26T18:13:01.037Z,4.17
2018-04-26T18:15:31.114Z,4.50
2018-04-26T18:18:00.459Z,5.17
2018-04-26T18:20:30.541Z,4.50
2018-04-26T18:22:59.877Z,4.90
2018-04-26T18:25:29.958Z,4.87
2018-04-26T18:27:59.281Z,4.37
2018-04-26T18:30:28.620Z,5.30
2018-04-26T18:32:58.002Z,6.00
2018-04-26T18:35:27.328Z,5.90
2018-04-26T18:37:56.655Z,5.43
2018-04-26T18:40:25.975Z,5.20
2018-04-26T18:42:55.285Z,5.77
2018-04-26T18:45:24.606Z,5.27
2018-04-26T18:47:54.726Z,5.73
2018-04-26T18:50:24.035Z,5.67
2018-04-26T18:52:53.406Z,6.53
2018-04-26T18:55:22.705Z,6.10
2018-04-26T18:57:52.016Z,6.37
2018-04-26T19:00:21.350Z,6.77
2018-04-26T19:02:51.485Z,7.13
2018-04-26T19:05:20.760Z,7.23
2018-04-26T19:07:50.074Z,7.50
2018-04-26T19:10:20.186Z,7.13
2018-04-26T19:12:49.439Z,7.20
2018-04-26T19:15:18.787Z,7.80
2018-04-26T19:17:48.119Z,8.20
2018-04-26T19:20:18.212Z,14.27
2018-04-26T19:22:47.532Z,10.30
2018-04-26T19:25:17.616Z,8.57
2018-04-26T19:27:46.994Z,9.33
2018-04-26T19:30:17.040Z,9.90
2018-04-26T19:32:46.393Z,10.00
2018-04-26T19:35:15.803Z,8.73
2018-04-26T19:37:45.360Z,9.07
2018-04-26T19:40:14.719Z,9.47
2018-04-26T19:42:44.013Z,8.33
2018-04-26T19:45:13.343Z,8.03
2018-04-26T19:47:42.646Z,9.27
2018-04-26T19:50:11.961Z,9.30
2018-04-26T19:52:41.347Z,8.60
2018-04-26T19:55:10.720Z,8.13
2018-04-26T19:57:40.834Z,8.37
2018-04-26T20:00:10.135Z,7.30
2018-04-26T20:02:40.227Z,8.30
2018-04-26T20:05:09.530Z,7.33
2018-04-26T20:07:38.847Z,7.40
2018-04-26T20:10:08.157Z,6.73
2018-04-26T20:12:38.238Z,5.67
2018-04-26T20:15:07.546Z,6.27
2018-04-26T20:17:36.853Z,8.50
2018-04-26T20:20:06.191Z,8.33
2018-04-26T20:22:36.271Z,7.60
2018-04-26T20:25:05.603Z,7.20
2018-04-26T20:27:35.355Z,6.00
2018-04-26T20:30:04.673Z,5.97
2018-04-26T20:32:33.970Z,8.10
2018-04-26T20:35:03.293Z,6.60
2018-04-26T20:37:33.157Z,6.77
2018-04-26T20:40:02.484Z,7.23
2018-04-26T20:42:31.772Z,7.13
2018-04-26T20:45:01.088Z,5.60
2018-04-26T20:47:30.397Z,6.57
2018-04-26T20:49:59.793Z,6.47
2018-04-26T20:52:29.186Z,6.47
2018-04-26T20:54:58.505Z,6.20
2018-04-26T20:57:27.840Z,7.63
2018-04-26T20:59:57.175Z,5.17
2018-04-26T21:02:27.336Z,5.80
2018-04-26T21:04:56.615Z,6.30
2018-04-26T21:07:25.949Z,5.80
2018-04-26T21:09:55.422Z,5.20
2018-04-26T21:12:25.548Z,5.67
2018-04-26T21:14:54.866Z,4.90
2018-04-26T21:17:24.179Z,4.17
2018-04-26T21:19:53.544Z,4.90
2018-04-26T21:22:23.622Z,5.50
2018-04-26T21:24:52.966Z,4.80
2018-04-26T21:27:23.063Z,5.00
2018-04-26T21:29:52.407Z,6.23
2018-04-26T21:32:21.743Z,4.30
2018-04-26T21:34:51.063Z,4.37
2018-04-26T21:37:20.456Z,4.60
2018-04-26T21:39:49.799Z,4.20
2018-04-26T21:42:19.888Z,4.47
2018-04-26T21:44:49.219Z,4.30
2018-04-26T21:47:18.594Z,5.10
2018-04-26T21:49:53.475Z,4.20
2018-04-26T21:52:29.682Z,3.60
2018-04-26T21:55:04.435Z,4.50
2018-04-26T21:57:39.258Z,4.20
2018-04-26T22:00:14.134Z,3.90
2018-04-26T22:02:43.679Z,4.40
2018-04-26T22:05:31.477Z,4.60
2018-04-26T22:08:01.606Z,4.20
2018-04-26T22:10:30.957Z,4.00
2018-04-26T22:13:00.296Z,3.40
2018-04-26T22:15:30.419Z,4.10
2018-04-26T22:18:00.542Z,3.50
2018-04-26T22:20:30.663Z,3.83
2018-04-26T22:23:00.780Z,4.20
2018-04-26T22:25:30.886Z,4.00
2018-04-26T22:28:00.221Z,4.50
2018-04-26T22:30:29.596Z,4.63
2018-04-26T22:32:59.738Z,3.40
2018-04-26T22:35:29.848Z,4.53
2018-04-26T22:37:59.207Z,4.67
2018-04-26T22:40:28.584Z,3.60
2018-04-26T22:42:57.966Z,4.00
2018-04-26T22:45:28.086Z,4.43
2018-04-26T22:47:58.203Z,3.70
2018-04-26T22:50:28.344Z,5.00
2018-04-26T22:52:57.693Z,3.97
2018-04-26T22:55:27.067Z,4.43
2018-04-26T22:57:56.438Z,4.93
2018-04-26T23:00:26.546Z,4.30
2018-04-26T23:02:56.683Z,4.27
2018-04-26T23:05:26.093Z,4.60
2018-04-26T23:07:56.213Z,4.50
2018-04-26T23:10:26.333Z,4.30
2018-04-26T23:12:56.450Z,4.57
2018-04-26T23:15:25.796Z,4.80
2018-04-26T23:17:55.149Z,4.80
2018-04-26T23:20:25.246Z,4.57
2018-04-26T23:22:54.573Z,4.30
2018-04-26T23:25:24.681Z,3.57
2018-04-26T23:27:54.015Z,4.57
2018-04-26T23:30:24.948Z,4.97
2018-04-26T23:32:55.177Z,3.70
2018-04-26T23:35:24.450Z,4.70
2018-04-26T23:37:53.780Z,4.60
2018-04-26T23:40:23.139Z,5.10
2018-04-26T23:42:52.471Z,4.37
2018-04-26T23:45:22.562Z,4.63
2018-04-26T23:47:51.890Z,4.20
2018-04-26T23:50:21.980Z,4.23
2018-04-26T23:52:51.324Z,4.43
2018-04-26T23:55:21.433Z,4.53
2018-04-26T23:57:51.549Z,4.53
